地図

経路データ

SID SEASON NUMBER BASIN SUBBASIN NAME ISO_TIME NATURE LAT LON WMO_WIND WMO_PRES WMO_AGENCY TRACK_TYPE DIST2LAND LANDFALL IFLAG USA_AGENCY USA_ATCF_ID USA_LAT USA_LON USA_RECORD USA_STATUS USA_WIND USA_PRES USA_SSHS USA_R34_NE USA_R34_SE USA_R34_SW USA_R34_NW USA_R50_NE USA_R50_SE USA_R50_SW USA_R50_NW USA_R64_NE USA_R64_SE USA_R64_SW USA_R64_NW USA_POCI USA_ROCI USA_RMW USA_EYE TOKYO_LAT TOKYO_LON TOKYO_GRADE TOKYO_WIND TOKYO_PRES TOKYO_R50_DIR TOKYO_R50_LONG TOKYO_R50_SHORT TOKYO_R30_DIR TOKYO_R30_LONG TOKYO_R30_SHORT TOKYO_LAND CMA_LAT CMA_LON CMA_CAT CMA_WIND CMA_PRES HKO_LAT HKO_LON HKO_CAT HKO_WIND HKO_PRES NEWDELHI_LAT NEWDELHI_LON NEWDELHI_GRADE NEWDELHI_WIND NEWDELHI_PRES NEWDELHI_CI NEWDELHI_DP NEWDELHI_POCI REUNION_LAT REUNION_LON REUNION_TYPE REUNION_WIND REUNION_PRES REUNION_TNUM REUNION_CI REUNION_RMW REUNION_R34_NE REUNION_R34_SE REUNION_R34_SW REUNION_R34_NW REUNION_R50_NE REUNION_R50_SE REUNION_R50_SW REUNION_R50_NW REUNION_R64_NE REUNION_R64_SE REUNION_R64_SW REUNION_R64_NW BOM_LAT BOM_LON BOM_TYPE BOM_WIND BOM_PRES BOM_TNUM BOM_CI BOM_RMW BOM_R34_NE BOM_R34_SE BOM_R34_SW BOM_R34_NW BOM_R50_NE BOM_R50_SE BOM_R50_SW BOM_R50_NW BOM_R64_NE BOM_R64_SE BOM_R64_SW BOM_R64_NW BOM_ROCI BOM_POCI BOM_EYE BOM_POS_METHOD BOM_PRES_METHOD NADI_LAT NADI_LON NADI_CAT NADI_WIND NADI_PRES WELLINGTON_LAT WELLINGTON_LON WELLINGTON_WIND WELLINGTON_PRES DS824_LAT DS824_LON DS824_STAGE DS824_WIND DS824_PRES TD9636_LAT TD9636_LON TD9636_STAGE TD9636_WIND TD9636_PRES TD9635_LAT TD9635_LON TD9635_WIND TD9635_PRES TD9635_ROCI NEUMANN_LAT NEUMANN_LON NEUMANN_CLASS NEUMANN_WIND NEUMANN_PRES MLC_LAT MLC_LON MLC_CLASS MLC_WIND MLC_PRES USA_GUST BOM_GUST BOM_GUST_PER REUNION_GUST REUNION_GUST_PER USA_SEAHGT USA_SEARAD_NE USA_SEARAD_SE USA_SEARAD_SW USA_SEARAD_NW STORM_SPEED STORM_DIR
1949062S13056 1949 18 SI MM NOT_NAMED 1949-03-03 06:00:00 NR -13.2000 56.2000 reunion main 654 654 _____O________ -1 -13.2000 56.2000 99 9.90000 1 232
1949062S13056 1949 18 SI MM NOT_NAMED 1949-03-03 09:00:00 NR -13.2341 56.1603 main 654 640 _____P________ -1 -13.2341 56.1603 99 1 229
1949062S13056 1949 18 SI MM NOT_NAMED 1949-03-03 12:00:00 NR -13.2686 56.1172 main 640 640 _____P________ -1 -13.2686 56.1172 99 1 232
1949062S13056 1949 18 SI MM NOT_NAMED 1949-03-03 15:00:00 NR -13.3036 56.0674 main 640 630 _____P________ -1 -13.3036 56.0674 99 1 235
1949062S13056 1949 18 SI MM NOT_NAMED 1949-03-03 18:00:00 NR -13.3397 56.0075 main 630 615 _____P________ -1 -13.3397 56.0075 99 1 240
1949062S13056 1949 18 SI MM NOT_NAMED 1949-03-03 21:00:00 NR -13.3771 55.9342 main 615 605 _____P________ -1 -13.3771 55.9342 99 2 244
1949062S13056 1949 18 SI MM NOT_NAMED 1949-03-04 00:00:00 NR -13.4160 55.8441 main 605 591 _____P________ -1 -13.4160 55.8441 99 2 248
1949062S13056 1949 18 SI MM NOT_NAMED 1949-03-04 03:00:00 NR -13.4569 55.7338 main 591 591 _____P________ -1 -13.4569 55.7338 99 3 329
1949062S13056 1949 18 SI MM NOT_NAMED 1949-03-04 06:00:00 TS -13.1571 55.6857 reunion main 603 588 O____O___OO___ jtwc_sh SH181949 -12.7000 55.8000 -1 -13.5000 55.6000 99 9.90000 -12.7000 55.8000 TC 25 -12.7000 55.8000 7 5 330
1949062S13056 1949 18 SI MM NOT_NAMED 1949-03-04 09:00:00 TS -13.0693 55.5041 main 588 568 P____P___PP___ SH181949 -12.7375 55.5525 -1 -13.5457 55.4405 99 -12.7375 55.5525 TC 25 -12.7799 55.5346 7 4 284
1949062S13056 1949 18 SI MM NOT_NAMED 1949-03-04 12:00:00 TS -13.0578 55.2814 main 568 546 O____P___OP___ jtwc_sh SH181949 -12.8000 55.3000 -1 -13.5946 55.2580 99 -12.8000 55.3000 TC 25 -12.8578 55.2752 7 5 267
1949062S13056 1949 18 SI MM NOT_NAMED 1949-03-04 15:00:00 TS -13.0948 55.0424 main 535 512 P____P___PP___ SH181949 -12.9000 55.0425 -1 -13.6475 55.0564 99 -12.9000 55.0425 TC 30 -12.9317 55.0283 7 5 256
1949062S13056 1949 18 SI MM NOT_NAMED 1949-03-04 18:00:00 TS -13.1763 54.8099 main 512 491 O____P___OO___ jtwc_sh SH181949 -13.0000 54.8000 -1 -13.7053 54.8397 99 -13.0000 54.8000 TC 35 -13.0000 54.8000 2 5 252
1949062S13056 1949 18 SI MM NOT_NAMED 1949-03-04 21:00:00 TS -13.2328 54.5976 main 491 468 P____P___PP___ SH181949 -13.0500 54.5924 -1 -13.7686 54.6118 99 -13.0500 54.5924 TC 35 -13.0627 54.5936 2 4 254
1949062S13056 1949 18 SI MM NOT_NAMED 1949-03-05 00:00:00 TS -13.2914 54.3941 main 468 445 O____P___OP___ jtwc_sh SH181949 -13.1000 54.4000 -1 -13.8383 54.3766 99 -13.1000 54.4000 TC 35 -13.1273 54.3998 2 4 251
1949062S13056 1949 18 SI MM NOT_NAMED 1949-03-05 03:00:00 TS -13.3721 54.1898 main 445 422 P____P___PP___ SH181949 -13.1850 54.2075 -1 -13.9151 54.1380 99 -13.1850 54.2075 TC 35 -13.2033 54.2061 2 4 246
1949062S13056 1949 18 SI MM NOT_NAMED 1949-03-05 06:00:00 TS -13.4750 53.9750 reunion main 422 398 O____O___OO___ jtwc_sh SH181949 -13.3000 54.0000 -1 -14.0000 53.9000 99 9.90000 -13.3000 54.0000 TC 35 -13.3000 54.0000 2 5 243
1949062S13056 1949 18 SI MM NOT_NAMED 1949-03-05 09:00:00 TS -13.5928 53.7420 main 388 364 P____P___PP___ SH181949 -13.4425 53.7575 -1 -14.0536 53.6846 99 -13.4425 53.7575 TC 35 -13.4325 53.7685 2 5 242
1949062S13056 1949 18 SI MM NOT_NAMED 1949-03-05 12:00:00 TS -13.7239 53.4976 main 364 334 O____P___OP___ jtwc_sh SH181949 -13.6000 53.5000 -1 -14.1107 53.4678 99 -13.6000 53.5000 TC 35 -13.5849 53.5226 2 5 241
1949062S13056 1949 18 SI MM NOT_NAMED 1949-03-05 15:00:00 TS -13.8595 53.2536 main 334 300 P____P___PP___ SH181949 -13.7575 53.2500 -1 -14.1780 53.2489 99 -13.7575 53.2500 TC 35 -13.7449 53.2653 2 5 241
1949062S13056 1949 18 SI MM NOT_NAMED 1949-03-05 18:00:00 TS -13.9905 53.0068 main 300 276 O____P___OO___ jtwc_sh SH181949 -13.9000 53.0000 -1 -14.2621 53.0273 99 -13.9000 53.0000 TC 35 -13.9000 53.0000 2 5 244
1949062S13056 1949 18 SI MM NOT_NAMED 1949-03-05 21:00:00 TS -14.0923 52.7623 main 276 242 P____P___PP___ SH181949 -13.9999 52.7574 -1 -14.3698 52.8024 99 -13.9999 52.7574 TC 35 -13.9996 52.7318 2 5 246
1949062S13056 1949 18 SI MM NOT_NAMED 1949-03-06 00:00:00 TS -14.2012 52.5076 main 242 208 O____P___OP___ jtwc_sh SH181949 -14.1000 52.5000 -1 -14.5075 52.5734 99 -14.1000 52.5000 TC 35 -14.0974 52.4569 2 6 245
1949062S13056 1949 18 SI MM NOT_NAMED 1949-03-06 03:00:00 TS -14.3359 52.2295 main 208 179 P____P___PP___ SH181949 -14.2200 52.1999 -1 -14.6820 52.3395 99 -14.2200 52.1999 TC 35 -14.2215 52.1786 2 6 239
1949062S13056 1949 18 SI MM NOT_NAMED 1949-03-06 06:00:00 TS -14.5250 51.9500 reunion main 179 136 O____O___OO___ jtwc_sh SH181949 -14.4000 51.9000 -1 -14.9000 52.1000 99 9.90000 -14.4000 51.9000 TC 35 -14.4000 51.9000 2 7 228
1949062S13056 1949 18 SI MM NOT_NAMED 1949-03-06 09:00:00 TS -14.8081 51.6957 main 136 107 P____P___PP___ SH181949 -14.6699 51.6499 -1 -15.2209 51.8698 99 -14.6699 51.6499 TC 35 -14.6716 51.6131 2 8 218
1949062S13056 1949 18 SI MM NOT_NAMED 1949-03-06 12:00:00 TS -15.1473 51.4408 main 97 75 O____P___OP___ jtwc_sh SH181949 -15.0000 51.4000 -1 -15.5916 51.6352 99 -15.0000 51.4000 TC 35 -14.9975 51.3279 2 9 216
1949062S13056 1949 18 SI MM NOT_NAMED 1949-03-06 15:00:00 TS -15.5112 51.1581 main 75 58 P____P___PP___ SH181949 -15.3500 51.0926 -1 -15.9949 51.3938 99 -15.3500 51.0926 TC 35 -15.3497 51.0537 2 9 216
1949062S13056 1949 18 SI MM NOT_NAMED 1949-03-06 18:00:00 TS -15.8784 50.8858 main 63 54 O____P___OO___ jtwc_sh SH181949 -15.7000 50.8000 -1 -16.4137 51.1430 99 -15.7000 50.8000 TC 35 -15.7000 50.8000 2 9 214
1949062S13056 1949 18 SI MM NOT_NAMED 1949-03-06 21:00:00 TS -16.2141 50.6621 main 57 54 P____P___PP___ SH181949 -16.0074 50.5848 -1 -16.8308 50.8806 99 -16.0074 50.5848 TC 35 -16.0109 50.5982 2 8 212
1949062S13056 1949 18 SI MM NOT_NAMED 1949-03-07 00:00:00 TS -16.5359 50.4546 main 64 53 O____P___OP___ jtwc_sh SH181949 -16.3000 50.4000 -1 -17.2290 50.6041 99 -16.3000 50.4000 TC 35 -16.3145 50.4142 2 8 212
1949062S13056 1949 18 SI MM NOT_NAMED 1949-03-07 03:00:00 TS -16.8505 50.2410 main 44 38 P____P___PP___ SH181949 -16.5999 50.2149 -1 -17.5911 50.3113 99 -16.5999 50.2149 TC 35 -16.6109 50.2232 2 8 215
1949062S13056 1949 18 SI MM NOT_NAMED 1949-03-07 06:00:00 TS -17.1500 50.0000 reunion main 39 31 O____O___OO___ jtwc_sh SH181949 -16.9000 50.0000 -1 -17.9000 50.0000 99 9.90000 -16.9000 50.0000 TC 35 -16.9000 50.0000 2 8 221
1949062S13056 1949 18 SI MM NOT_NAMED 1949-03-07 09:00:00 TS -17.4290 49.7122 main 31 0 P____P___PP___ SH181949 -17.2075 49.7225 -1 -18.0863 49.6802 99 -17.2075 49.7225 TC 35 -17.2146 49.7234 2 8 227
1949062S13056 1949 18 SI MM NOT_NAMED 1949-03-07 12:00:00 TS -17.6851 49.3885 main 0 0 O____P___OP___ jtwc_sh SH181949 -17.5000 49.4000 -1 -18.2232 49.3437 99 -17.5000 49.4000 TC 35 -17.5173 49.4104 2 8 232
1949062S13056 1949 18 SI MM NOT_NAMED 1949-03-07 15:00:00 TS -17.9169 49.0470 main 0 0 P____P___PP___ SH181949 -17.7799 49.0650 -1 -18.3212 48.9909 99 -17.7799 49.0650 TC 35 -17.7864 49.0672 2 8 239
1949062S13056 1949 18 SI MM NOT_NAMED 1949-03-07 18:00:00 TS -18.0978 48.6806 main 0 0 O____P___OO___ jtwc_sh SH181949 -18.0000 48.7000 -1 -18.3910 48.6225 99 -18.0000 48.7000 TC 35 -18.0000 48.7000 2 8 248
1949062S13056 1949 18 SI MM NOT_NAMED 1949-03-07 21:00:00 TS -18.2048 48.2966 main 0 0 P____P___PP___ SH181949 -18.1300 48.3074 -1 -18.4432 48.2389 99 -18.1300 48.3074 TC 35 -18.1160 48.3328 2 8 257
1949062S13056 1949 18 SI MM NOT_NAMED 1949-03-08 00:00:00 TS -18.2670 47.8960 main 0 0 O____P___OP___ jtwc_sh SH181949 -18.2000 47.9000 -1 -18.4883 47.8404 99 -18.2000 47.9000 TC 35 -18.1796 47.9437 2 8 262
1949062S13056 1949 18 SI MM NOT_NAMED 1949-03-08 03:00:00 TS -18.3088 47.4937 main 0 0 P____P___PP___ SH181949 -18.2349 47.5072 -1 -18.5371 47.4274 99 -18.2349 47.5072 TC 35 -18.2284 47.5328 2 8 262
1949062S13056 1949 18 SI MM NOT_NAMED 1949-03-08 06:00:00 TS -18.3750 47.0750 reunion main 0 0 O____O___OO___ jtwc_sh SH181949 -18.3000 47.1000 -1 -18.6000 47.0000 99 9.90000 -18.3000 47.1000 TC 35 -18.3000 47.1000 2 8 255
1949062S13056 1949 18 SI MM NOT_NAMED 1949-03-08 09:00:00 TS -18.5283 46.6370 main 0 0 P____P___PP___ SH181949 -18.4849 46.6651 -1 -18.6854 46.5585 99 -18.4849 46.6651 TC 35 -18.4581 46.6590 2 9 249
1949062S13056 1949 18 SI MM NOT_NAMED 1949-03-08 12:00:00 TS -18.7086 46.1749 main 0 0 O____P___OP___ jtwc_sh SH181949 -18.7000 46.2000 -1 -18.7922 46.1043 99 -18.7000 46.2000 TC 35 -18.6420 46.1954 2 10 249
1949062S13056 1949 18 SI MM NOT_NAMED 1949-03-08 15:00:00 TS -18.8692 45.6944 main 0 0 P____P___PP___ SH181949 -18.8649 45.7149 -1 -18.9172 45.6387 99 -18.8649 45.7149 TC 35 -18.8299 45.7090 2 10 252
1949062S13056 1949 18 SI MM NOT_NAMED 1949-03-08 18:00:00 TS -19.0143 45.1909 main 0 0 O____P___OO___ jtwc_sh SH181949 -19.0000 45.2000 -1 -19.0571 45.1635 99 -19.0000 45.2000 TC 35 -19.0000 45.2000 2 10 254
1949062S13056 1949 18 SI MM NOT_NAMED 1949-03-08 21:00:00 TS -19.1398 44.6662 main 0 0 P____P___PP___ SH181949 -19.1074 44.6574 -1 -19.2086 44.6803 99 -19.1074 44.6574 TC 35 -19.1358 44.6696 2 10 257
1949062S13056 1949 18 SI MM NOT_NAMED 1949-03-09 00:00:00 TS -19.2525 44.1283 main 23 23 O____P___OP___ jtwc_sh SH181949 -19.2000 44.1000 -1 -19.3685 44.1908 99 -19.2000 44.1000 TC 35 -19.2415 44.1225 2 10 258
1949062S13056 1949 18 SI MM NOT_NAMED 1949-03-09 03:00:00 TS -19.3638 43.5891 main 71 71 P____P___PP___ SH181949 -19.2978 43.5477 -1 -19.5333 43.6968 99 -19.2978 43.5477 TC 35 -19.3264 43.5641 2 10 258
1949062S13056 1949 18 SI MM NOT_NAMED 1949-03-09 06:00:00 TS -19.4750 43.0500 reunion main 123 O____O___OO___ jtwc_sh SH181949 -19.4000 43.0000 -1 -19.7000 43.2000 99 9.90000 -19.4000 43.0000 TC 35 -19.4000 43.0000 2 10 258

IBTrACS Databaseについて

本データベースは、米国NOAAが公開する1842年以降の世界の熱帯低気圧のベストトラックデータアーカイブInternational Best Track Archive for Climate Stewardship (IBTrACS)を、ウェブで閲覧しやすい形式に変換したものです。

最終更新日:2021-12-01